ダブリン の空港の天気 - METARとTAF

ダブリン空港 ( EIDW / DUB ) - アイルランド ダブリン
飛行場実況気象(Metar)
観測時間08/06 22:30 GMT (08/06 21:30 UTC)
風向・風速南 3m/s
視程10km以上
天気現象
少しの雲 雲底高度 460m
全天の8割程度の雲 雲底高度 1220m
気温18℃
湿度77%
気圧1015hPa
METAREIDW 062130Z 18005KT 150V210 9999 FEW015 BKN040 18/14 Q1015 NOSIG
過去の天気等 Google飛行場航空写真 Wunderground天気予報

過去48時間のMETAR

飛行場予報(TAF)
発表時間: 8/06 18:00 GMT (8/06 17:00 UTC)
予報対象時間: 6日19時 GMT ~ 7日19時 GMT
風向・風速南南東 3m/s
視程10km以上
少しの雲 雲底高度 300m
全天の8割程度の雲 雲底高度 910m
6日19時 GMT ~ 6日21時 GMT に徐々に
風向・風速南南西 5m/s
7日1時 GMT ~ 7日3時 GMT に徐々に
風向・風速南 3m/s
7日3時 GMT ~ 7日6時 GMT に 確率 30% で一時的に
視程4000m
天気現象もや
全天の8割程度の雲 雲底高度 430m
7日11時 GMT ~ 7日13時 GMT に徐々に
風向・風速南西 5m/s
TAF EIDW 061700Z 0618/0718 16006KT 9999 FEW010 BKN030
BECMG 0618/0620 20010KT
BECMG 0700/0702 18005KT
PROB30 TEMPO 0702/0705 4000 BR BKN014
BECMG 0710/0712 23010KT